Terminal Aerodrome Forecast
Issued by NWS Charleston, SC

Home | Current Version | Previous Version | Text Only | Print | Product List | Glossary On
Versions: 1 2 3 4 5 6 7 8 9 10 11 12
376
FTUS42 KCHS 151120
TAFCHS
TAF
KCHS 151120Z 1512/1612 25004KT P6SM BKN200
     FM152000 27010KT P6SM BKN200
     FM160300 30006KT P6SM OVC150
     FM160800 35005KT P6SM FEW250=

USA.gov is the U.S. government's official web portal to all federal, state and local government web resources and services.